Terminal Aerodrome Forecast
Issued by NWS Boise, ID

Home | Current Version | Previous Version | Text Only | Print | Product List | Glossary On
Versions: 1 2 3 4 5 6 7 8 9 10 11 12 13 14 15 16 17 18 19 20 21 22 23 24 25 26 27 28 29 30 31 32 33 34 35 36
208
FTUS45 KBOI 072340
TAFBOI
TAF
KBOI 072340Z 0800/0824 15006KT P6SM SCT040
     FM080300 13009KT P6SM SCT250
     FM080600 14014G24KT P6SM OVC200
     FM081500 14016G26KT P6SM VCSH BKN060 OVC100
     FM082000 14018G28KT 2SM -SN OVC015=

USA.gov is the U.S. government's official web portal to all federal, state and local government web resources and services.